sensor_id;sensor_type;location;lat;lon;timestamp;pressure;altitude;pressure_sealevel;temperature;humidity
46223;BME280;31943;51.410;7.564;2024-03-17T00:01:17;101084.44;;;7.16;61.71
46223;BME280;31943;51.410;7.564;2024-03-17T00:03:44;101077.47;;;7.15;61.71
46223;BME280;31943;51.410;7.564;2024-03-17T00:06:10;101066.13;;;7.13;61.81
46223;BME280;31943;51.410;7.564;2024-03-17T00:08:35;101060.84;;;7.10;61.71
46223;BME280;31943;51.410;7.564;2024-03-17T00:11:01;101076.41;;;7.10;62.00
46223;BME280;31943;51.410;7.564;2024-03-17T00:13:27;101075.47;;;7.08;62.17
46223;BME280;31943;51.410;7.564;2024-03-17T00:15:54;101074.53;;;7.06;62.14
46223;BME280;31943;51.410;7.564;2024-03-17T00:18:19;101067.50;;;7.03;61.93
46223;BME280;31943;51.410;7.564;2024-03-17T00:20:46;101068.22;;;6.99;61.97
46223;BME280;31943;51.410;7.564;2024-03-17T00:23:12;101065.56;;;6.98;61.98
46223;BME280;31943;51.410;7.564;2024-03-17T00:25:38;101063.75;;;6.95;62.40
46223;BME280;31943;51.410;7.564;2024-03-17T00:28:05;101066.25;;;6.92;62.04
46223;BME280;31943;51.410;7.564;2024-03-17T00:30:30;101060.78;;;6.86;61.93
46223;BME280;31943;51.410;7.564;2024-03-17T00:32:56;101065.03;;;6.84;62.04
46223;BME280;31943;51.410;7.564;2024-03-17T00:35:22;101053.84;;;6.85;62.48
46223;BME280;31943;51.410;7.564;2024-03-17T00:37:50;101052.13;;;6.85;62.55
46223;BME280;31943;51.410;7.564;2024-03-17T00:40:17;101057.38;;;6.87;62.42
46223;BME280;31943;51.410;7.564;2024-03-17T00:42:43;101059.03;;;6.85;62.48
46223;BME280;31943;51.410;7.564;2024-03-17T00:45:10;101050.31;;;6.83;62.27
46223;BME280;31943;51.410;7.564;2024-03-17T00:47:35;101055.38;;;6.80;62.50
46223;BME280;31943;51.410;7.564;2024-03-17T00:50:01;101046.66;;;6.78;62.31
46223;BME280;31943;51.410;7.564;2024-03-17T00:52:28;101037.94;;;6.76;62.50
46223;BME280;31943;51.410;7.564;2024-03-17T00:54:55;101050.84;;;6.74;62.68
46223;BME280;31943;51.410;7.564;2024-03-17T00:57:21;101041.22;;;6.71;62.72
46223;BME280;31943;51.410;7.564;2024-03-17T00:59:46;101035.94;;;6.68;62.37
46223;BME280;31943;51.410;7.564;2024-03-17T01:02:12;101038.41;;;6.65;62.72
46223;BME280;31943;51.410;7.564;2024-03-17T01:04:39;101032.28;;;6.63;62.41
46223;BME280;31943;51.410;7.564;2024-03-17T01:07:04;101030.19;;;6.54;62.43
46223;BME280;31943;51.410;7.564;2024-03-17T01:09:30;101033.56;;;6.52;62.53
46223;BME280;31943;51.410;7.564;2024-03-17T01:11:57;101028.28;;;6.49;62.23
46223;BME280;31943;51.410;7.564;2024-03-17T01:14:23;101025.56;;;6.46;62.57
46223;BME280;31943;51.410;7.564;2024-03-17T01:16:50;101019.34;;;6.42;62.42
46223;BME280;31943;51.410;7.564;2024-03-17T01:19:16;101027.03;;;6.39;62.18
46223;BME280;31943;51.410;7.564;2024-03-17T01:21:41;101019.19;;;6.38;62.52
46223;BME280;31943;51.410;7.564;2024-03-17T01:24:07;101015.59;;;6.34;62.24
46223;BME280;31943;51.410;7.564;2024-03-17T01:26:32;101012.81;;;6.29;62.36
46223;BME280;31943;51.410;7.564;2024-03-17T01:28:59;101010.09;;;6.26;62.28
46223;BME280;31943;51.410;7.564;2024-03-17T01:31:25;101006.50;;;6.23;62.17
46223;BME280;31943;51.410;7.564;2024-03-17T01:33:50;101007.13;;;6.17;61.90
46223;BME280;31943;51.410;7.564;2024-03-17T01:36:16;101000.06;;;6.13;62.15
46223;BME280;31943;51.410;7.564;2024-03-17T01:38:42;100999.03;;;6.09;62.31
46223;BME280;31943;51.410;7.564;2024-03-17T01:41:07;100992.88;;;6.06;62.24
46223;BME280;31943;51.410;7.564;2024-03-17T01:43:33;100996.22;;;6.03;62.46
46223;BME280;31943;51.410;7.564;2024-03-17T01:46:00;100992.59;;;6.00;62.34
46223;BME280;31943;51.410;7.564;2024-03-17T01:48:26;100991.63;;;5.96;62.05
46223;BME280;31943;51.410;7.564;2024-03-17T01:50:53;100996.69;;;5.94;62.18
46223;BME280;31943;51.410;7.564;2024-03-17T01:53:21;100998.34;;;5.92;62.18
46223;BME280;31943;51.410;7.564;2024-03-17T01:55:48;100994.88;;;5.92;62.69
46223;BME280;31943;51.410;7.564;2024-03-17T01:58:13;101000.72;;;5.88;62.51
46223;BME280;31943;51.410;7.564;2024-03-17T02:00:40;100988.53;;;5.85;62.60
46223;BME280;31943;51.410;7.564;2024-03-17T02:03:07;100997.16;;;5.84;62.55
46223;BME280;31943;51.410;7.564;2024-03-17T02:05:33;101003.91;;;5.81;62.45
46223;BME280;31943;51.410;7.564;2024-03-17T02:07:59;100998.59;;;5.78;62.51
46223;BME280;31943;51.410;7.564;2024-03-17T02:10:25;100995.19;;;5.79;62.49
46223;BME280;31943;51.410;7.564;2024-03-17T02:12:50;100993.34;;;5.76;62.80
46223;BME280;31943;51.410;7.564;2024-03-17T02:15:17;100993.31;;;5.74;62.39
46223;BME280;31943;51.410;7.564;2024-03-17T02:17:43;100989.78;;;5.72;62.61
46223;BME280;31943;51.410;7.564;2024-03-17T02:20:13;100997.41;;;5.69;62.58
46223;BME280;31943;51.410;7.564;2024-03-17T02:22:40;100986.91;;;5.66;62.47
46223;BME280;31943;51.410;7.564;2024-03-17T02:25:07;100986.66;;;5.60;62.24
46223;BME280;31943;51.410;7.564;2024-03-17T02:27:33;100990.88;;;5.58;62.52
46223;BME280;31943;51.410;7.564;2024-03-17T02:29:59;100987.25;;;5.54;62.25
46223;BME280;31943;51.410;7.564;2024-03-17T02:32:25;100988.97;;;5.54;62.35
46223;BME280;31943;51.410;7.564;2024-03-17T02:34:51;100989.75;;;5.51;62.43
46223;BME280;31943;51.410;7.564;2024-03-17T02:37:16;100981.09;;;5.51;62.43
46223;BME280;31943;51.410;7.564;2024-03-17T02:39:43;100976.66;;;5.48;62.34
46223;BME280;31943;51.410;7.564;2024-03-17T02:42:10;100981.66;;;5.44;62.47
46223;BME280;31943;51.410;7.564;2024-03-17T02:44:36;100981.50;;;5.41;62.42
46223;BME280;31943;51.410;7.564;2024-03-17T02:47:04;100985.81;;;5.40;62.67
46223;BME280;31943;51.410;7.564;2024-03-17T02:49:31;100985.03;;;5.43;63.04
46223;BME280;31943;51.410;7.564;2024-03-17T02:51:57;100985.72;;;5.39;62.76
46223;BME280;31943;51.410;7.564;2024-03-17T02:54:24;100982.19;;;5.37;62.62
46223;BME280;31943;51.410;7.564;2024-03-17T02:56:51;100979.53;;;5.35;62.71
46223;BME280;31943;51.410;7.564;2024-03-17T02:59:16;100982.97;;;5.34;62.92
46223;BME280;31943;51.410;7.564;2024-03-17T03:01:42;100980.31;;;5.32;62.61
46223;BME280;31943;51.410;7.564;2024-03-17T03:04:08;100983.56;;;5.28;62.55
46223;BME280;31943;51.410;7.564;2024-03-17T03:06:34;100986.16;;;5.28;62.58
46223;BME280;31943;51.410;7.564;2024-03-17T03:09:01;100983.38;;;5.24;62.60
46223;BME280;31943;51.410;7.564;2024-03-17T03:11:26;100982.44;;;5.22;62.68
46223;BME280;31943;51.410;7.564;2024-03-17T03:13:53;100983.06;;;5.16;62.52
46223;BME280;31943;51.410;7.564;2024-03-17T03:16:19;100982.97;;;5.14;62.49
46223;BME280;31943;51.410;7.564;2024-03-17T03:18:44;100981.28;;;5.15;62.66
46223;BME280;31943;51.410;7.564;2024-03-17T03:21:10;100981.19;;;5.13;62.68
46223;BME280;31943;51.410;7.564;2024-03-17T03:23:36;100985.41;;;5.11;62.72
46223;BME280;31943;51.410;7.564;2024-03-17T03:26:02;100982.03;;;5.12;62.89
46223;BME280;31943;51.410;7.564;2024-03-17T03:28:29;100984.63;;;5.12;63.02
46223;BME280;31943;51.410;7.564;2024-03-17T03:30:57;100981.16;;;5.12;62.82
46223;BME280;31943;51.410;7.564;2024-03-17T03:33:23;100975.84;;;5.09;62.85
46223;BME280;31943;51.410;7.564;2024-03-17T03:35:49;100979.97;;;5.05;62.77
46223;BME280;31943;51.410;7.564;2024-03-17T03:38:14;100979.03;;;5.03;63.09
46223;BME280;31943;51.410;7.564;2024-03-17T03:40:40;100979.94;;;5.04;62.86
46223;BME280;31943;51.410;7.564;2024-03-17T03:43:06;100967.72;;;5.01;62.81
46223;BME280;31943;51.410;7.564;2024-03-17T03:45:31;100964.28;;;5.01;63.19
46223;BME280;31943;51.410;7.564;2024-03-17T03:47:58;100962.50;;;5.00;63.01
46223;BME280;31943;51.410;7.564;2024-03-17T03:50:24;100958.94;;;4.98;62.90
46223;BME280;31943;51.410;7.564;2024-03-17T03:52:51;100964.00;;;4.94;62.98
46223;BME280;31943;51.410;7.564;2024-03-17T03:55:18;100962.91;;;4.89;62.82
46223;BME280;31943;51.410;7.564;2024-03-17T03:57:44;100962.84;;;4.88;62.96
46223;BME280;31943;51.410;7.564;2024-03-17T04:00:11;100950.81;;;4.88;62.98
46223;BME280;31943;51.410;7.564;2024-03-17T04:02:37;100956.78;;;4.87;63.04
46223;BME280;31943;51.410;7.564;2024-03-17T04:05:07;100953.31;;;4.87;63.14
46223;BME280;31943;51.410;7.564;2024-03-17T04:07:33;100960.19;;;4.86;63.30
46223;BME280;31943;51.410;7.564;2024-03-17T04:09:59;100962.63;;;4.83;63.21
46223;BME280;31943;51.410;7.564;2024-03-17T04:12:25;100969.44;;;4.81;63.13
46223;BME280;31943;51.410;7.564;2024-03-17T04:14:50;100972.78;;;4.79;63.15
46223;BME280;31943;51.410;7.564;2024-03-17T04:17:16;100971.00;;;4.78;63.16
46223;BME280;31943;51.410;7.564;2024-03-17T04:19:43;100973.66;;;4.79;63.32
46223;BME280;31943;51.410;7.564;2024-03-17T04:22:18;100971.84;;;4.77;63.47
46223;BME280;31943;51.410;7.564;2024-03-17T04:24:44;100977.81;;;4.75;63.49
46223;BME280;31943;51.410;7.564;2024-03-17T04:27:09;100975.16;;;4.74;63.30
46223;BME280;31943;51.410;7.564;2024-03-17T04:29:35;100970.81;;;4.73;63.29
46223;BME280;31943;51.410;7.564;2024-03-17T04:32:01;100976.69;;;4.70;63.23
46223;BME280;31943;51.410;7.564;2024-03-17T04:34:27;100973.16;;;4.68;63.35
46223;BME280;31943;51.410;7.564;2024-03-17T04:36:52;100970.56;;;4.68;63.55
46223;BME280;31943;51.410;7.564;2024-03-17T04:39:19;100962.81;;;4.68;63.57
46223;BME280;31943;51.410;7.564;2024-03-17T04:41:45;100965.41;;;4.68;63.46
46223;BME280;31943;51.410;7.564;2024-03-17T04:44:12;100966.25;;;4.67;63.54
46223;BME280;31943;51.410;7.564;2024-03-17T04:46:37;100961.00;;;4.66;63.71
46223;BME280;31943;51.410;7.564;2024-03-17T04:49:03;100963.56;;;4.66;63.57
46223;BME280;31943;51.410;7.564;2024-03-17T04:51:28;100960.19;;;4.67;63.74
46223;BME280;31943;51.410;7.564;2024-03-17T04:53:54;100966.34;;;4.70;63.67
46223;BME280;31943;51.410;7.564;2024-03-17T04:56:21;100957.88;;;4.73;63.82
46223;BME280;31943;51.410;7.564;2024-03-17T04:58:47;100949.25;;;4.72;63.73
46223;BME280;31943;51.410;7.564;2024-03-17T05:01:12;100948.50;;;4.75;63.89
46223;BME280;31943;51.410;7.564;2024-03-17T05:03:37;100942.47;;;4.76;63.93
46223;BME280;31943;51.410;7.564;2024-03-17T05:06:05;100942.47;;;4.76;64.05
46223;BME280;31943;51.410;7.564;2024-03-17T05:08:32;100948.56;;;4.77;63.85
46223;BME280;31943;51.410;7.564;2024-03-17T05:10:58;100949.50;;;4.79;63.95
46223;BME280;31943;51.410;7.564;2024-03-17T05:13:26;100941.69;;;4.77;63.94
46223;BME280;31943;51.410;7.564;2024-03-17T05:15:52;100943.44;;;4.78;64.25
46223;BME280;31943;51.410;7.564;2024-03-17T05:18:19;100938.25;;;4.78;64.38
46223;BME280;31943;51.410;7.564;2024-03-17T05:20:44;100935.69;;;4.78;63.97
46223;BME280;31943;51.410;7.564;2024-03-17T05:23:10;100938.22;;;4.77;64.03
46223;BME280;31943;51.410;7.564;2024-03-17T05:25:35;100928.69;;;4.75;64.18
46223;BME280;31943;51.410;7.564;2024-03-17T05:28:01;100932.97;;;4.75;64.17
46223;BME280;31943;51.410;7.564;2024-03-17T05:30:28;100936.31;;;4.72;64.14
46223;BME280;31943;51.410;7.564;2024-03-17T05:32:53;100940.66;;;4.73;64.08
46223;BME280;31943;51.410;7.564;2024-03-17T05:35:19;100941.50;;;4.72;64.06
46223;BME280;31943;51.410;7.564;2024-03-17T05:37:45;100945.81;;;4.73;64.12
46223;BME280;31943;51.410;7.564;2024-03-17T05:40:11;100942.28;;;4.71;64.29
46223;BME280;31943;51.410;7.564;2024-03-17T05:42:37;100938.81;;;4.71;64.08
46223;BME280;31943;51.410;7.564;2024-03-17T05:45:03;100938.81;;;4.71;64.30
46223;BME280;31943;51.410;7.564;2024-03-17T05:47:30;100930.25;;;4.72;64.05
46223;BME280;31943;51.410;7.564;2024-03-17T05:49:55;100929.28;;;4.70;64.01
46223;BME280;31943;51.410;7.564;2024-03-17T05:52:21;100936.09;;;4.68;64.12
46223;BME280;31943;51.410;7.564;2024-03-17T05:54:48;100937.72;;;4.66;63.92
46223;BME280;31943;51.410;7.564;2024-03-17T05:57:13;100934.25;;;4.65;63.95
46223;BME280;31943;51.410;7.564;2024-03-17T05:59:39;100935.13;;;4.66;64.24
46223;BME280;31943;51.410;7.564;2024-03-17T06:02:04;100939.50;;;4.67;64.17
46223;BME280;31943;51.410;7.564;2024-03-17T06:04:31;100940.47;;;4.69;63.96
46223;BME280;31943;51.410;7.564;2024-03-17T06:06:58;100937.03;;;4.70;64.06
46223;BME280;31943;51.410;7.564;2024-03-17T06:09:24;100932.72;;;4.69;63.96
46223;BME280;31943;51.410;7.564;2024-03-17T06:11:49;100930.13;;;4.69;64.08
46223;BME280;31943;51.410;7.564;2024-03-17T06:14:16;100934.34;;;4.67;63.82
46223;BME280;31943;51.410;7.564;2024-03-17T06:16:41;100936.84;;;4.65;63.81
46223;BME280;31943;51.410;7.564;2024-03-17T06:19:07;100936.03;;;4.66;63.89
46223;BME280;31943;51.410;7.564;2024-03-17T06:21:34;100940.31;;;4.66;63.78
46223;BME280;31943;51.410;7.564;2024-03-17T06:23:59;100930.03;;;4.67;63.73
46223;BME280;31943;51.410;7.564;2024-03-17T06:26:25;100938.00;;;4.72;63.56
46223;BME280;31943;51.410;7.564;2024-03-17T06:28:51;100934.72;;;4.76;63.64
46223;BME280;31943;51.410;7.564;2024-03-17T06:31:16;100932.38;;;4.81;63.94
46223;BME280;31943;51.410;7.564;2024-03-17T06:33:42;100928.25;;;4.86;63.98
46223;BME280;31943;51.410;7.564;2024-03-17T06:36:08;100920.75;;;4.92;63.46
46223;BME280;31943;51.410;7.564;2024-03-17T06:38:35;100924.38;;;4.95;63.64
46223;BME280;31943;51.410;7.564;2024-03-17T06:41:00;100929.69;;;4.99;63.62
46223;BME280;31943;51.410;7.564;2024-03-17T06:43:27;100921.25;;;5.03;63.85
46223;BME280;31943;51.410;7.564;2024-03-17T06:45:56;100926.69;;;5.09;63.85
46223;BME280;31943;51.410;7.564;2024-03-17T06:48:22;100913.91;;;5.12;63.95
46223;BME280;31943;51.410;7.564;2024-03-17T06:50:48;100911.56;;;5.18;63.96
46223;BME280;31943;51.410;7.564;2024-03-17T06:53:13;100910.88;;;5.22;63.96
46223;BME280;31943;51.410;7.564;2024-03-17T06:55:40;100905.84;;;5.25;63.80
46223;BME280;31943;51.410;7.564;2024-03-17T06:58:06;100904.22;;;5.29;63.76
46223;BME280;31943;51.410;7.564;2024-03-17T07:00:31;100914.81;;;5.33;63.88
46223;BME280;31943;51.410;7.564;2024-03-17T07:02:57;100912.38;;;5.38;64.04
46223;BME280;31943;51.410;7.564;2024-03-17T07:05:22;100908.22;;;5.42;64.09
46223;BME280;31943;51.410;7.564;2024-03-17T07:07:48;100915.22;;;5.44;64.16
46223;BME280;31943;51.410;7.564;2024-03-17T07:10:14;100913.59;;;5.46;64.40
46223;BME280;31943;51.410;7.564;2024-03-17T07:12:41;100913.66;;;5.48;64.24
46223;BME280;31943;51.410;7.564;2024-03-17T07:15:08;100915.47;;;5.50;64.31
46223;BME280;31943;51.410;7.564;2024-03-17T07:17:33;100905.19;;;5.52;64.24
46223;BME280;31943;51.410;7.564;2024-03-17T07:20:01;100900.16;;;5.55;64.37
46223;BME280;31943;51.410;7.564;2024-03-17T07:22:27;100893.25;;;5.55;64.43
46223;BME280;31943;51.410;7.564;2024-03-17T07:24:55;100891.75;;;5.61;64.36
46223;BME280;31943;51.410;7.564;2024-03-17T07:27:21;100889.41;;;5.67;64.26
46223;BME280;31943;51.410;7.564;2024-03-17T07:29:48;100891.28;;;5.71;64.54
46223;BME280;31943;51.410;7.564;2024-03-17T07:32:14;100890.66;;;5.77;64.27
46223;BME280;31943;51.410;7.564;2024-03-17T07:34:39;100885.78;;;5.84;64.38
46223;BME280;31943;51.410;7.564;2024-03-17T07:37:05;100879.06;;;5.89;64.29
46223;BME280;31943;51.410;7.564;2024-03-17T07:39:30;100875.06;;;5.96;64.49
46223;BME280;31943;51.410;7.564;2024-03-17T07:41:56;100870.09;;;6.02;64.19
46223;BME280;31943;51.410;7.564;2024-03-17T07:44:22;100880.75;;;6.10;64.45
46223;BME280;31943;51.410;7.564;2024-03-17T07:46:49;100880.16;;;6.17;64.41
46223;BME280;31943;51.410;7.564;2024-03-17T07:49:14;100882.16;;;6.24;64.02
46223;BME280;31943;51.410;7.564;2024-03-17T07:51:40;100879.63;;;6.26;64.03
46223;BME280;31943;51.410;7.564;2024-03-17T07:54:06;100878.91;;;6.30;64.41
46223;BME280;31943;51.410;7.564;2024-03-17T07:56:31;100880.22;;;6.41;64.25
46223;BME280;31943;51.410;7.564;2024-03-17T07:58:56;100886.50;;;6.48;64.59
46223;BME280;31943;51.410;7.564;2024-03-17T08:01:22;100890.16;;;6.53;64.33
46223;BME280;31943;51.410;7.564;2024-03-17T08:03:49;100895.56;;;6.59;64.66
46223;BME280;31943;51.410;7.564;2024-03-17T08:06:21;100890.44;;;6.62;64.74
46223;BME280;31943;51.410;7.564;2024-03-17T08:08:47;100889.78;;;6.68;64.92
46223;BME280;31943;51.410;7.564;2024-03-17T08:11:12;100883.13;;;6.75;64.93
46223;BME280;31943;51.410;7.564;2024-03-17T08:13:38;100885.09;;;6.82;64.94
46223;BME280;31943;51.410;7.564;2024-03-17T08:16:05;100883.63;;;6.88;65.26
46223;BME280;31943;51.410;7.564;2024-03-17T08:18:31;100877.97;;;7.00;65.07
46223;BME280;31943;51.410;7.564;2024-03-17T08:20:59;100874.25;;;7.18;64.97
46223;BME280;31943;51.410;7.564;2024-03-17T08:23:25;100875.53;;;7.30;64.77
46223;BME280;31943;51.410;7.564;2024-03-17T08:25:54;100875.09;;;7.44;65.05
46223;BME280;31943;51.410;7.564;2024-03-17T08:28:20;100877.34;;;7.59;64.38
46223;BME280;31943;51.410;7.564;2024-03-17T08:30:51;100876.84;;;7.70;64.51
46223;BME280;31943;51.410;7.564;2024-03-17T08:33:16;100884.09;;;7.81;63.77
46223;BME280;31943;51.410;7.564;2024-03-17T08:35:42;100888.66;;;7.89;64.03
46223;BME280;31943;51.410;7.564;2024-03-17T08:38:09;100894.47;;;8.09;63.41
46223;BME280;31943;51.410;7.564;2024-03-17T08:40:36;100889.91;;;8.31;63.26
46223;BME280;31943;51.410;7.564;2024-03-17T08:43:10;100878.47;;;8.53;62.90
46223;BME280;31943;51.410;7.564;2024-03-17T08:46:04;100872.13;;;8.75;62.33
46223;BME280;31943;51.410;7.564;2024-03-17T08:48:31;100878.44;;;8.83;61.39
46223;BME280;31943;51.410;7.564;2024-03-17T08:50:58;100879.88;;;9.05;61.25
46223;BME280;31943;51.410;7.564;2024-03-17T08:53:26;100868.31;;;9.29;60.35
46223;BME280;31943;51.410;7.564;2024-03-17T08:55:51;100875.50;;;9.38;60.07
46223;BME280;31943;51.410;7.564;2024-03-17T08:58:17;100880.75;;;9.39;59.91
46223;BME280;31943;51.410;7.564;2024-03-17T09:00:43;100892.00;;;9.38;59.79
46223;BME280;31943;51.410;7.564;2024-03-17T09:03:09;100893.78;;;9.41;59.94
46223;BME280;31943;51.410;7.564;2024-03-17T09:05:34;100891.38;;;9.48;59.91
46223;BME280;31943;51.410;7.564;2024-03-17T09:08:00;100895.84;;;9.53;59.86
46223;BME280;31943;51.410;7.564;2024-03-17T09:10:27;100888.19;;;9.60;59.60
46223;BME280;31943;51.410;7.564;2024-03-17T09:12:53;100881.66;;;9.78;59.04
46223;BME280;31943;51.410;7.564;2024-03-17T09:15:18;100887.50;;;10.04;58.49
46223;BME280;31943;51.410;7.564;2024-03-17T09:17:44;100882.78;;;10.28;58.37
46223;BME280;31943;51.410;7.564;2024-03-17T09:20:11;100879.78;;;10.49;57.91
46223;BME280;31943;51.410;7.564;2024-03-17T09:22:37;100870.34;;;10.56;57.60
46223;BME280;31943;51.410;7.564;2024-03-17T09:25:05;100869.47;;;10.56;56.98
46223;BME280;31943;51.410;7.564;2024-03-17T09:27:34;100868.72;;;10.61;56.51
46223;BME280;31943;51.410;7.564;2024-03-17T09:29:59;100869.84;;;10.74;56.36
46223;BME280;31943;51.410;7.564;2024-03-17T09:32:25;100863.09;;;10.85;56.00
46223;BME280;31943;51.410;7.564;2024-03-17T09:34:51;100851.88;;;10.91;55.59
46223;BME280;31943;51.410;7.564;2024-03-17T09:37:16;100853.00;;;11.04;55.32
46223;BME280;31943;51.410;7.564;2024-03-17T09:39:42;100849.78;;;11.20;54.80
46223;BME280;31943;51.410;7.564;2024-03-17T09:42:17;100847.16;;;11.20;54.23
46223;BME280;31943;51.410;7.564;2024-03-17T09:44:45;100848.25;;;11.32;54.29
46223;BME280;31943;51.410;7.564;2024-03-17T09:47:18;100841.56;;;11.49;54.15
46223;BME280;31943;51.410;7.564;2024-03-17T09:49:44;100847.03;;;11.64;54.39
46223;BME280;31943;51.410;7.564;2024-03-17T09:52:17;100838.47;;;11.78;54.05
46223;BME280;31943;51.410;7.564;2024-03-17T09:54:43;100839.56;;;11.89;54.06
46223;BME280;31943;51.410;7.564;2024-03-17T09:57:16;100843.06;;;11.91;53.87
46223;BME280;31943;51.410;7.564;2024-03-17T09:59:50;100850.06;;;11.92;53.51
46223;BME280;31943;51.410;7.564;2024-03-17T10:02:17;100848.31;;;11.93;53.63
46223;BME280;31943;51.410;7.564;2024-03-17T10:04:43;100862.16;;;11.87;53.15
46223;BME280;31943;51.410;7.564;2024-03-17T10:07:09;100849.00;;;11.81;53.02
46223;BME280;31943;51.410;7.564;2024-03-17T10:09:34;100852.44;;;11.77;53.44
46223;BME280;31943;51.410;7.564;2024-03-17T10:12:00;100850.66;;;11.74;52.77
46223;BME280;31943;51.410;7.564;2024-03-17T10:14:25;100845.59;;;11.86;52.78
46223;BME280;31943;51.410;7.564;2024-03-17T10:16:52;100842.38;;;12.04;52.55
46223;BME280;31943;51.410;7.564;2024-03-17T10:19:22;100844.47;;;12.32;52.04
46223;BME280;31943;51.410;7.564;2024-03-17T10:21:48;100841.34;;;12.60;51.16
46223;BME280;31943;51.410;7.564;2024-03-17T10:24:18;100829.25;;;12.73;50.82
46223;BME280;31943;51.410;7.564;2024-03-17T10:26:49;100835.34;;;12.74;50.16
46223;BME280;31943;51.410;7.564;2024-03-17T10:29:20;100832.75;;;12.72;50.68
46223;BME280;31943;51.410;7.564;2024-03-17T10:31:46;100842.19;;;12.59;50.64
46223;BME280;31943;51.410;7.564;2024-03-17T10:34:17;100833.34;;;12.50;51.06
46223;BME280;31943;51.410;7.564;2024-03-17T10:36:42;100846.31;;;12.40;51.27
46223;BME280;31943;51.410;7.564;2024-03-17T10:39:22;100838.38;;;12.31;50.51
46223;BME280;31943;51.410;7.564;2024-03-17T10:41:48;100856.56;;;12.22;50.70
46223;BME280;31943;51.410;7.564;2024-03-17T10:44:14;100868.69;;;12.17;51.42
46223;BME280;31943;51.410;7.564;2024-03-17T10:46:40;100859.09;;;12.14;51.74
46223;BME280;31943;51.410;7.564;2024-03-17T10:49:09;100855.56;;;12.12;51.83
46223;BME280;31943;51.410;7.564;2024-03-17T10:51:38;100848.56;;;12.10;51.87
46223;BME280;31943;51.410;7.564;2024-03-17T10:54:05;100841.59;;;12.10;51.64
46223;BME280;31943;51.410;7.564;2024-03-17T10:56:32;100842.59;;;12.20;52.02
46223;BME280;31943;51.410;7.564;2024-03-17T10:58:58;100838.31;;;12.26;51.92
46223;BME280;31943;51.410;7.564;2024-03-17T11:01:26;100840.94;;;12.28;51.95
46223;BME280;31943;51.410;7.564;2024-03-17T11:03:53;100846.22;;;12.31;52.24
46223;BME280;31943;51.410;7.564;2024-03-17T11:06:19;100838.38;;;12.33;51.88
46223;BME280;31943;51.410;7.564;2024-03-17T11:08:54;100839.38;;;12.42;51.92
46223;BME280;31943;51.410;7.564;2024-03-17T11:11:35;100840.34;;;12.52;51.68
46223;BME280;31943;51.410;7.564;2024-03-17T11:14:16;100837.00;;;12.65;51.23
46223;BME280;31943;51.410;7.564;2024-03-17T11:16:41;100839.69;;;12.72;52.30
46223;BME280;31943;51.410;7.564;2024-03-17T11:19:07;100839.00;;;12.88;51.96
46223;BME280;31943;51.410;7.564;2024-03-17T11:21:32;100840.84;;;12.98;51.62
46223;BME280;31943;51.410;7.564;2024-03-17T11:24:01;100837.50;;;13.15;51.30
46223;BME280;31943;51.410;7.564;2024-03-17T11:26:33;100833.22;;;13.24;50.52
46223;BME280;31943;51.410;7.564;2024-03-17T11:28:59;100836.66;;;13.19;50.51
46223;BME280;31943;51.410;7.564;2024-03-17T11:31:42;100840.19;;;13.19;50.77
46223;BME280;31943;51.410;7.564;2024-03-17T11:34:32;100832.34;;;13.24;50.42
46223;BME280;31943;51.410;7.564;2024-03-17T11:37:00;100832.44;;;13.32;50.61
46223;BME280;31943;51.410;7.564;2024-03-17T11:39:53;100829.91;;;13.41;50.37
46223;BME280;31943;51.410;7.564;2024-03-17T11:42:19;100828.28;;;13.58;49.70
46223;BME280;31943;51.410;7.564;2024-03-17T11:44:56;100830.97;;;13.71;49.85
46223;BME280;31943;51.410;7.564;2024-03-17T11:47:21;100831.91;;;13.83;49.96
46223;BME280;31943;51.410;7.564;2024-03-17T11:49:47;100830.25;;;13.95;49.51
46223;BME280;31943;51.410;7.564;2024-03-17T11:52:15;100832.03;;;14.00;49.10
46223;BME280;31943;51.410;7.564;2024-03-17T11:54:42;100830.31;;;14.04;49.33
46223;BME280;31943;51.410;7.564;2024-03-17T11:57:11;100832.97;;;14.15;49.23
46223;BME280;31943;51.410;7.564;2024-03-17T11:59:37;100827.72;;;14.21;49.76
46223;BME280;31943;51.410;7.564;2024-03-17T12:02:10;100825.94;;;14.08;48.80
46223;BME280;31943;51.410;7.564;2024-03-17T12:04:39;100825.81;;;13.84;48.73
46223;BME280;31943;51.410;7.564;2024-03-17T12:07:10;100826.63;;;13.76;48.71
46223;BME280;31943;51.410;7.564;2024-03-17T12:09:41;100823.97;;;13.70;49.42
46223;BME280;31943;51.410;7.564;2024-03-17T12:12:10;100822.25;;;13.78;49.39
46223;BME280;31943;51.410;7.564;2024-03-17T12:14:37;100820.53;;;13.77;49.65
46223;BME280;31943;51.410;7.564;2024-03-17T12:17:04;100817.06;;;13.82;49.85
46223;BME280;31943;51.410;7.564;2024-03-17T12:19:30;100813.56;;;13.82;49.75
46223;BME280;31943;51.410;7.564;2024-03-17T12:21:57;100815.34;;;13.86;49.92
46223;BME280;31943;51.410;7.564;2024-03-17T12:24:24;100812.63;;;13.75;50.06
46223;BME280;31943;51.410;7.564;2024-03-17T12:26:52;100798.66;;;13.79;49.74
46223;BME280;31943;51.410;7.564;2024-03-17T12:29:36;100800.44;;;13.83;50.58
46223;BME280;31943;51.410;7.564;2024-03-17T12:32:03;100789.97;;;13.82;50.55
46223;BME280;31943;51.410;7.564;2024-03-17T12:34:30;100792.66;;;13.96;50.69
46223;BME280;31943;51.410;7.564;2024-03-17T12:36:57;100787.47;;;14.10;50.12
46223;BME280;31943;51.410;7.564;2024-03-17T12:39:26;100783.16;;;14.26;49.36
46223;BME280;31943;51.410;7.564;2024-03-17T12:42:02;100777.97;;;14.52;49.52
46223;BME280;31943;51.410;7.564;2024-03-17T12:44:30;100774.53;;;14.65;48.31
46223;BME280;31943;51.410;7.564;2024-03-17T12:46:56;100768.41;;;14.69;48.18
46223;BME280;31943;51.410;7.564;2024-03-17T12:49:22;100767.53;;;14.82;48.38
46223;BME280;31943;51.410;7.564;2024-03-17T12:51:48;100764.94;;;14.92;47.58
46223;BME280;31943;51.410;7.564;2024-03-17T12:54:14;100760.56;;;14.94;48.10
46223;BME280;31943;51.410;7.564;2024-03-17T12:56:39;100759.69;;;14.99;47.59